Time;durP1;ratioP1;P1;durP2;ratioP2;P2;SDS_P1;SDS_P2;PMS_P1;PMS_P2;Temp;Humidity;BMP_temperature;BMP_pressure;BME280_temperature;BME280_humidity;BME280_pressure;Samples;Min_cycle;Max_cycle;Signal;HPM_P1;HPM_P2
2022/07/27 00:00:33;;;;;;;2.67;1.00;;;16.60;99.90;;;;;;5084024;28;20205;-69
2022/07/27 00:03:01;;;;;;;2.10;0.90;;;16.70;99.90;;;;;;5104538;28;20245;-70
2022/07/27 00:05:29;;;;;;;2.57;1.20;;;16.50;99.90;;;;;;5099447;28;20175;-69
2022/07/27 00:07:57;;;;;;;1.33;0.90;;;16.60;99.90;;;;;;5084787;28;20646;-70
2022/07/27 00:10:25;;;;;;;3.17;1.30;;;16.50;99.90;;;;;;5104168;28;20179;-70
2022/07/27 00:12:52;;;;;;;1.87;0.90;;;16.70;99.90;;;;;;5102404;28;20179;-70
2022/07/27 00:15:20;;;;;;;5.97;1.20;;;16.50;99.90;;;;;;5102372;28;20548;-70
2022/07/27 00:17:48;;;;;;;3.43;1.00;;;16.60;99.90;;;;;;5110420;28;20174;-70
2022/07/27 00:20:16;;;;;;;3.07;1.20;;;17.00;99.90;;;;;;5113422;28;20189;-69
2022/07/27 00:22:44;;;;;;;3.13;0.97;;;17.00;99.90;;;;;;5113547;28;20584;-69
2022/07/27 00:25:11;;;;;;;2.33;1.03;;;17.20;99.90;;;;;;5113062;28;20174;-70
2022/07/27 00:27:39;;;;;;;3.10;1.07;;;17.50;99.90;;;;;;5113263;28;20189;-70
2022/07/27 00:30:07;;;;;;;3.33;1.37;;;17.40;99.90;;;;;;5113283;28;20213;-70
2022/07/27 00:32:35;;;;;;;3.10;0.90;;;17.50;99.90;;;;;;5108850;28;20238;-70
2022/07/27 00:35:03;;;;;;;3.23;1.00;;;17.20;99.90;;;;;;5102937;28;20730;-70
2022/07/27 00:37:30;;;;;;;2.40;1.07;;;17.00;99.90;;;;;;5096219;28;20175;-70
2022/07/27 00:39:58;;;;;;;2.50;1.00;;;16.70;99.90;;;;;;5092484;28;20516;-69
2022/07/27 00:42:27;;;;;;;3.13;1.07;;;16.90;99.90;;;;;;5074558;28;20183;-71
2022/07/27 00:44:55;;;;;;;3.23;1.00;;;17.10;99.90;;;;;;5092635;28;20179;-71
2022/07/27 00:47:23;;;;;;;2.47;1.20;;;17.40;97.70;;;;;;5092686;28;20254;-69
2022/07/27 00:49:51;;;;;;;4.40;1.20;;;17.10;98.70;;;;;;5092567;28;20206;-69
2022/07/27 00:52:20;;;;;;;3.83;1.30;;;17.00;98.70;;;;;;5092294;28;20183;-70
2022/07/27 00:54:48;;;;;;;4.40;1.07;;;17.00;99.90;;;;;;5092337;28;20218;-69
2022/07/27 00:57:16;;;;;;;1.90;1.00;;;17.60;98.50;;;;;;5092477;28;20700;-70
2022/07/27 00:59:44;;;;;;;1.77;1.07;;;17.70;99.10;;;;;;5092121;28;20195;-70
2022/07/27 01:02:12;;;;;;;3.43;1.00;;;18.20;94.60;;;;;;5092275;28;20235;-70
2022/07/27 01:04:40;;;;;;;3.67;1.00;;;18.30;94.70;;;;;;5092193;28;20179;-70
2022/07/27 01:07:08;;;;;;;1.80;0.97;;;18.50;94.20;;;;;;5092222;28;20546;-70
2022/07/27 01:12:22;;;;;;;5.63;1.03;;;17.80;90.50;;;;;;5092254;28;20225;-70
2022/07/27 01:14:51;;;;;;;3.73;1.20;;;18.00;92.10;;;;;;5101874;28;20305;-70
2022/07/27 01:17:19;;;;;;;3.47;1.07;;;18.50;91.20;;;;;;5091877;28;20187;-70
2022/07/27 01:19:47;;;;;;;2.77;0.90;;;18.40;90.50;;;;;;5091973;28;20175;-70
2022/07/27 01:22:15;;;;;;;5.40;1.07;;;18.20;87.10;;;;;;5091682;28;20235;-70
2022/07/27 01:24:43;;;;;;;2.77;0.90;;;18.20;87.30;;;;;;5091843;28;20181;-70
2022/07/27 01:27:11;;;;;;;2.43;0.90;;;18.50;90.30;;;;;;5107579;28;20546;-70
2022/07/27 01:29:38;;;;;;;3.73;1.33;;;19.00;89.90;;;;;;5107928;28;20242;-70
2022/07/27 01:32:07;;;;;;;4.53;1.40;;;19.10;83.90;;;;;;5111777;28;20278;-70
2022/07/27 01:34:35;;;;;;;3.23;1.10;;;19.10;85.60;;;;;;5112183;28;20715;-70
2022/07/27 01:37:04;;;;;;;3.03;0.80;;;19.30;81.90;;;;;;5111481;28;20167;-70
2022/07/27 01:39:32;;;;;;;6.30;0.83;;;19.00;82.00;;;;;;5111697;28;20178;-70
2022/07/27 01:42:00;;;;;;;3.10;0.67;;;18.80;79.30;;;;;;5111656;28;20199;-70
2022/07/27 01:44:28;;;;;;;2.83;0.80;;;19.20;83.10;;;;;;5111917;28;20230;-70
2022/07/27 01:46:56;;;;;;;2.53;1.10;;;18.70;77.50;;;;;;5111800;28;20182;-70
2022/07/27 01:49:24;;;;;;;3.50;1.00;;;18.90;78.80;;;;;;5107673;28;20183;-70
2022/07/27 01:51:51;;;;;;;5.00;1.17;;;18.90;81.90;;;;;;5104826;28;20178;-70
2022/07/27 01:54:19;;;;;;;3.03;0.93;;;19.30;77.50;;;;;;5111553;28;20225;-71
2022/07/27 01:56:47;;;;;;;2.30;0.70;;;19.20;82.40;;;;;;5111594;28;20174;-71
2022/07/27 01:59:15;;;;;;;3.63;1.10;;;18.90;74.70;;;;;;5107518;28;20182;-70
2022/07/27 02:01:42;;;;;;;5.67;1.40;;;19.00;75.50;;;;;;5092013;28;20327;-70
2022/07/27 02:04:10;;;;;;;2.10;1.00;;;19.10;73.00;;;;;;5091824;28;20168;-70
2022/07/27 02:06:41;;;;;;;5.93;1.10;;;19.00;77.70;;;;;;5092124;28;20190;-71
2022/07/27 02:09:13;;;;;;;1.63;0.87;;;19.20;73.80;;;;;;5092617;28;20558;-69
2022/07/27 02:14:27;;;;;;;6.17;0.90;;;19.50;74.60;;;;;;5107476;28;20278;-70
2022/07/27 02:16:55;;;;;;;5.00;0.90;;;19.70;73.60;;;;;;5112101;28;20660;-69
2022/07/27 02:19:22;;;;;;;3.10;1.00;;;19.90;72.50;;;;;;5107340;28;20665;-71
2022/07/27 02:21:50;;;;;;;3.70;1.07;;;20.40;76.30;;;;;;5091800;28;20256;-71
2022/07/27 02:24:22;;;;;;;5.63;1.20;;;20.50;66.80;;;;;;5091785;28;20186;-69
2022/07/27 02:26:53;;;;;;;3.93;0.97;;;20.10;67.90;;;;;;5091673;28;20567;-70
2022/07/27 02:29:24;;;;;;;2.30;0.93;;;20.10;70.00;;;;;;5091997;28;20186;-72
2022/07/27 02:31:52;;;;;;;3.13;1.17;;;20.00;67.30;;;;;;5099117;28;20332;-71
2022/07/27 02:34:20;;;;;;;3.17;1.10;;;20.20;69.70;;;;;;5093707;28;20749;-71
2022/07/27 02:36:48;;;;;;;3.80;1.27;;;19.90;68.60;;;;;;5094105;28;20554;-72
2022/07/27 02:39:17;;;;;;;3.90;1.00;;;19.90;70.00;;;;;;5112103;28;20182;-71
2022/07/27 02:41:48;;;;;;;2.93;0.90;;;20.00;70.10;;;;;;5112156;28;20238;-73
2022/07/27 02:44:20;;;;;;;5.50;1.17;;;19.80;68.20;;;;;;5094033;28;20216;-71
2022/07/27 02:46:52;;;;;;;5.13;1.03;;;19.90;67.00;;;;;;5112345;28;20203;-70
2022/07/27 02:49:20;;;;;;;2.37;0.83;;;19.90;67.60;;;;;;5110748;28;20187;-71
2022/07/27 02:51:51;;;;;;;3.27;0.90;;;20.00;68.30;;;;;;5116055;28;20179;-70
2022/07/27 02:54:23;;;;;;;6.27;1.00;;;20.20;66.10;;;;;;5115689;28;20237;-71
2022/07/27 02:56:53;;;;;;;4.03;1.20;;;20.00;66.00;;;;;;5115747;28;20323;-71
2022/07/27 02:59:22;;;;;;;3.30;0.73;;;19.70;67.50;;;;;;5115483;28;20182;-70
2022/07/27 03:01:50;;;;;;;3.43;1.13;;;19.50;68.80;;;;;;5080457;28;20194;-71
2022/07/27 03:04:20;;;;;;;3.80;1.00;;;19.90;67.30;;;;;;5115435;28;20290;-69
2022/07/27 03:06:51;;;;;;;3.10;1.00;;;19.90;67.60;;;;;;5098309;28;20221;-70
2022/07/27 03:09:19;;;;;;;4.53;0.70;;;20.00;71.00;;;;;;5099787;28;20175;-71
2022/07/27 03:11:46;;;;;;;3.07;1.07;;;20.20;73.30;;;;;;5094836;28;20258;-71
2022/07/27 03:14:14;;;;;;;4.43;1.10;;;20.40;66.30;;;;;;5101100;28;20207;-69
2022/07/27 03:16:42;;;;;;;4.13;1.00;;;20.40;68.80;;;;;;5081820;28;20178;-70
2022/07/27 03:19:10;;;;;;;3.00;1.00;;;20.20;66.10;;;;;;5094854;28;20183;-72
2022/07/27 03:21:38;;;;;;;4.37;0.73;;;20.10;66.70;;;;;;5095163;28;20167;-69
2022/07/27 03:24:06;;;;;;;4.10;0.73;;;20.10;67.50;;;;;;5094670;28;20177;-71
2022/07/27 03:26:34;;;;;;;4.23;1.20;;;19.80;69.10;;;;;;5112570;28;20224;-69
2022/07/27 03:29:01;;;;;;;2.07;0.80;;;20.20;72.70;;;;;;5103903;28;20190;-71
2022/07/27 03:31:29;;;;;;;4.77;1.00;;;20.30;71.00;;;;;;5106073;28;20222;-72
2022/07/27 03:33:57;;;;;;;4.27;0.90;;;20.30;69.20;;;;;;5094483;28;20249;-72
2022/07/27 03:36:26;;;;;;;3.47;0.93;;;20.70;67.70;;;;;;5098411;28;20547;-71
2022/07/27 03:38:55;;;;;;;1.73;0.77;;;20.60;68.10;;;;;;5107202;28;20184;-70
2022/07/27 03:41:28;;;;;;;4.47;1.13;;;20.30;66.60;;;;;;5094541;28;20278;-70
2022/07/27 03:43:55;;;;;;;4.07;1.23;;;20.20;66.50;;;;;;5094840;28;20220;-71
2022/07/27 03:46:23;;;;;;;3.43;0.97;;;19.90;68.20;;;;;;5098058;28;20189;-69
2022/07/27 03:48:51;;;;;;;3.83;0.97;;;19.70;66.50;;;;;;5106381;28;20186;-71
2022/07/27 03:51:20;;;;;;;2.57;0.80;;;20.10;69.60;;;;;;5115029;28;20177;-70
2022/07/27 03:53:48;;;;;;;2.20;1.00;;;20.30;67.70;;;;;;5096559;28;20222;-70
2022/07/27 03:56:16;;;;;;;4.37;1.03;;;20.20;66.30;;;;;;5094927;28;20194;-71
2022/07/27 03:58:47;;;;;;;4.03;0.90;;;20.30;68.30;;;;;;5094931;28;20693;-71
2022/07/27 04:01:15;;;;;;;3.70;1.13;;;20.40;67.50;;;;;;5094385;28;20255;-71
2022/07/27 04:03:46;;;;;;;4.97;1.30;;;20.60;68.60;;;;;;5096282;28;20224;-71
2022/07/27 04:06:13;;;;;;;2.53;0.93;;;20.70;65.70;;;;;;5076174;28;20548;-70
2022/07/27 04:08:41;;;;;;;3.70;1.20;;;20.40;66.50;;;;;;5079228;28;20181;-71
2022/07/27 04:11:10;;;;;;;6.13;1.30;;;20.60;66.30;;;;;;5109215;28;20266;-70
2022/07/27 04:13:38;;;;;;;2.00;0.87;;;20.70;69.20;;;;;;5100454;28;20203;-72
2022/07/27 04:16:06;;;;;;;2.70;0.93;;;20.90;68.30;;;;;;5081687;28;20188;-70
2022/07/27 04:18:37;;;;;;;2.53;1.00;;;20.90;66.40;;;;;;5093859;28;20257;-72
2022/07/27 04:21:05;;;;;;;4.13;0.80;;;20.60;67.50;;;;;;5093743;28;20182;-71
2022/07/27 04:23:33;;;;;;;5.23;0.97;;;20.20;63.50;;;;;;5093662;28;20275;-70
2022/07/27 04:26:01;;;;;;;2.13;0.83;;;20.30;69.90;;;;;;5106203;28;20685;-70
2022/07/27 04:28:31;;;;;;;2.63;0.97;;;20.40;67.10;;;;;;5093129;28;20229;-69
2022/07/27 04:31:02;;;;;;;4.47;1.10;;;20.50;66.10;;;;;;5093329;28;20313;-69
2022/07/27 04:33:31;;;;;;;3.10;0.80;;;20.40;64.10;;;;;;5093398;28;20239;-69
2022/07/27 04:35:58;;;;;;;2.57;0.80;;;20.40;67.80;;;;;;5094217;28;20269;-69
2022/07/27 04:38:26;;;;;;;1.63;0.80;;;20.40;66.60;;;;;;5073039;28;20183;-69
2022/07/27 04:40:54;;;;;;;2.27;0.83;;;20.40;69.00;;;;;;5073196;28;20259;-70
2022/07/27 04:43:22;;;;;;;3.07;0.87;;;20.40;67.80;;;;;;5073023;28;20184;-70
2022/07/27 04:45:50;;;;;;;2.70;1.20;;;20.50;67.20;;;;;;5088462;28;20555;-69
2022/07/27 04:48:18;;;;;;;2.20;0.73;;;20.30;64.80;;;;;;5103145;28;20265;-70
2022/07/27 04:50:46;;;;;;;2.33;0.80;;;20.30;64.70;;;;;;5113373;28;20217;-70
2022/07/27 04:53:15;;;;;;;3.03;0.90;;;20.20;67.60;;;;;;5113201;28;20168;-70
2022/07/27 04:55:45;;;;;;;2.57;0.80;;;20.10;66.50;;;;;;5101313;28;20600;-71
2022/07/27 04:58:14;;;;;;;2.77;0.80;;;20.20;68.30;;;;;;5092899;28;20201;-71
2022/07/27 05:00:42;;;;;;;4.97;1.30;;;20.10;68.30;;;;;;5108138;28;20178;-71
2022/07/27 05:03:10;;;;;;;4.43;0.97;;;20.10;69.30;;;;;;5136313;27;20192;-70
2022/07/27 05:05:38;;;;;;;4.53;1.60;;;20.10;71.30;;;;;;5117261;28;20189;-71
2022/07/27 05:08:06;;;;;;;1.87;0.73;;;19.90;70.70;;;;;;5133520;27;20179;-72
2022/07/27 05:10:34;;;;;;;4.43;1.10;;;19.70;72.20;;;;;;5130529;27;20164;-71
2022/07/27 05:13:03;;;;;;;4.90;1.10;;;19.60;72.80;;;;;;5112822;28;20182;-70
2022/07/27 05:15:32;;;;;;;2.33;1.03;;;19.50;76.20;;;;;;5113120;28;20650;-71
2022/07/27 05:18:00;;;;;;;3.73;0.93;;;19.60;79.30;;;;;;5080041;28;20179;-69
2022/07/27 05:20:28;;;;;;;7.43;1.40;;;19.60;80.90;;;;;;5092730;28;20176;-69
2022/07/27 05:22:56;;;;;;;3.10;1.00;;;19.50;76.50;;;;;;5092673;28;20678;-70
2022/07/27 05:25:24;;;;;;;3.43;1.20;;;19.50;76.80;;;;;;5092699;28;20269;-70
2022/07/27 05:27:52;;;;;;;4.30;0.90;;;19.30;77.10;;;;;;5109094;28;20530;-69
2022/07/27 05:30:21;;;;;;;5.70;1.47;;;19.10;78.90;;;;;;5109775;28;20202;-69
2022/07/27 05:32:48;;;;;;;3.70;1.00;;;19.00;83.40;;;;;;5093518;28;20199;-69
2022/07/27 05:35:15;;;;;;;4.87;1.40;;;18.80;83.20;;;;;;5103167;28;20259;-70
2022/07/27 05:37:45;;;;;;;5.57;1.30;;;18.60;87.20;;;;;;5092002;28;20176;-71
2022/07/27 05:40:13;;;;;;;6.40;1.30;;;18.50;90.20;;;;;;5102949;28;20829;-70
2022/07/27 05:42:43;;;;;;;2.80;1.27;;;18.40;92.30;;;;;;5091976;28;20175;-70
2022/07/27 05:45:12;;;;;;;3.27;1.13;;;18.20;93.20;;;;;;5092333;28;20175;-70
2022/07/27 05:47:39;;;;;;;5.43;1.37;;;18.10;94.60;;;;;;5110984;28;20174;-71
2022/07/27 05:50:08;;;;;;;3.17;1.40;;;17.90;97.60;;;;;;5112618;28;20197;-71
2022/07/27 05:52:37;;;;;;;5.77;1.23;;;17.90;99.20;;;;;;5094277;28;20182;-71
2022/07/27 05:55:05;;;;;;;5.07;1.23;;;17.80;99.90;;;;;;5113716;28;20573;-72
2022/07/27 05:57:32;;;;;;;8.33;1.63;;;17.70;99.90;;;;;;5112451;28;20583;-71
2022/07/27 06:00:00;;;;;;;3.33;1.17;;;17.50;99.90;;;;;;5114020;28;20641;-71
2022/07/27 06:02:30;;;;;;;5.33;1.30;;;17.50;99.90;;;;;;5091526;28;20202;-71
2022/07/27 06:04:58;;;;;;;2.60;1.20;;;17.40;99.90;;;;;;5096061;28;20261;-71
2022/07/27 06:10:12;;;;;;;3.47;1.03;;;17.20;99.90;;;;;;5107582;28;20308;-71
2022/07/27 06:12:41;;;;;;;5.57;1.53;;;17.10;99.90;;;;;;5109561;28;20175;-73
2022/07/27 06:15:10;;;;;;;10.87;1.20;;;17.00;99.90;;;;;;5094018;28;20274;-72
2022/07/27 06:17:38;;;;;;;3.70;1.40;;;17.00;99.90;;;;;;5098336;28;20209;-71
2022/07/27 06:20:08;;;;;;;3.60;1.20;;;16.90;99.90;;;;;;5093561;28;20182;-70
2022/07/27 06:22:52;;;;;;;3.53;1.20;;;16.90;99.90;;;;;;5075512;28;20185;-68
2022/07/27 06:25:21;;;;;;;4.90;1.50;;;16.90;99.90;;;;;;5097140;28;20178;-67
2022/07/27 06:27:49;;;;;;;2.70;1.10;;;16.80;99.90;;;;;;5097437;28;20210;-69
2022/07/27 06:30:19;;;;;;;2.50;1.10;;;16.70;99.90;;;;;;5113080;28;20194;-71
2022/07/27 06:32:47;;;;;;;3.97;1.00;;;16.70;99.90;;;;;;5097011;28;20266;-70
2022/07/27 06:35:17;;;;;;;5.70;1.00;;;16.70;99.90;;;;;;5097635;28;20223;-70
2022/07/27 06:37:47;;;;;;;3.40;1.20;;;16.60;99.90;;;;;;5097649;28;20179;-69
2022/07/27 06:40:15;;;;;;;5.07;1.30;;;16.50;99.90;;;;;;5097381;28;20513;-69
2022/07/27 06:42:44;;;;;;;8.03;1.20;;;16.50;99.90;;;;;;5097156;28;20251;-69
2022/07/27 06:45:11;;;;;;;6.23;1.67;;;16.40;99.90;;;;;;5096936;28;20266;-67
2022/07/27 06:47:40;;;;;;;4.53;1.20;;;16.40;99.90;;;;;;5097188;28;20179;-69
2022/07/27 06:50:11;;;;;;;3.93;1.43;;;16.30;99.90;;;;;;5097123;28;20632;-69
2022/07/27 06:52:39;;;;;;;5.53;1.53;;;16.20;99.90;;;;;;5096935;28;20637;-67
2022/07/27 06:55:06;;;;;;;4.70;1.40;;;16.20;99.90;;;;;;5112406;28;20577;-69
2022/07/27 06:57:34;;;;;;;6.60;1.50;;;16.20;99.90;;;;;;5096787;28;20656;-69
2022/07/27 07:00:02;;;;;;;5.60;1.33;;;16.10;99.90;;;;;;5096655;28;20179;-69
2022/07/27 07:02:31;;;;;;;5.30;1.53;;;16.00;99.90;;;;;;5096773;28;20552;-67
2022/07/27 07:04:59;;;;;;;5.43;1.40;;;16.00;99.90;;;;;;5096595;28;20266;-67
2022/07/27 07:07:26;;;;;;;4.67;1.40;;;15.90;99.90;;;;;;5096681;28;20183;-67
2022/07/27 07:09:56;;;;;;;4.43;1.57;;;15.80;99.90;;;;;;5096765;28;20187;-68
2022/07/27 07:12:24;;;;;;;3.87;1.67;;;15.70;99.90;;;;;;5096595;28;20167;-69
2022/07/27 07:14:54;;;;;;;5.80;1.40;;;15.70;99.90;;;;;;5111681;28;20242;-71
2022/07/27 07:17:22;;;;;;;6.57;1.33;;;15.60;99.90;;;;;;5113050;28;20250;-71
2022/07/27 07:19:49;;;;;;;4.90;1.30;;;15.60;99.90;;;;;;5096703;28;20176;-70
2022/07/27 07:22:16;;;;;;;4.20;1.60;;;15.50;99.90;;;;;;5096492;28;20190;-72
2022/07/27 07:24:44;;;;;;;7.43;1.77;;;15.40;99.90;;;;;;5096424;28;20198;-68
2022/07/27 07:27:11;;;;;;;7.23;2.00;;;15.20;99.90;;;;;;5096347;28;20175;-68
2022/07/27 07:29:38;;;;;;;5.77;2.03;;;15.00;99.90;;;;;;5096369;28;20181;-67
2022/07/27 07:32:06;;;;;;;8.27;2.23;;;14.80;99.90;;;;;;5111709;28;20322;-68
2022/07/27 07:34:33;;;;;;;4.17;1.50;;;14.70;99.90;;;;;;5096038;28;20230;-72
2022/07/27 07:37:05;;;;;;;6.70;1.50;;;14.60;99.90;;;;;;5095183;28;20260;-68
2022/07/27 07:39:34;;;;;;;3.33;1.10;;;14.40;99.90;;;;;;5096193;28;20643;-70
2022/07/27 07:42:02;;;;;;;5.80;1.50;;;14.40;99.90;;;;;;5111589;28;20229;-70
2022/07/27 07:44:29;;;;;;;8.23;1.40;;;14.20;99.90;;;;;;5096080;28;20178;-68
2022/07/27 07:46:57;;;;;;;4.27;1.57;;;14.10;99.90;;;;;;5096294;28;20536;-67
2022/07/27 07:49:24;;;;;;;5.43;1.60;;;13.90;99.90;;;;;;5095947;28;20287;-71
2022/07/27 07:51:53;;;;;;;8.50;2.93;;;13.80;99.90;;;;;;5095839;28;20187;-68
2022/07/27 07:54:20;;;;;;;12.93;7.60;;;13.70;99.90;;;;;;5095951;28;20236;-71
2022/07/27 07:56:48;;;;;;;19.47;10.40;;;13.50;99.90;;;;;;5111811;28;20180;-69
2022/07/27 07:59:15;;;;;;;41.07;23.17;;;13.40;99.90;;;;;;5096235;28;20652;-71
2022/07/27 08:01:43;;;;;;;20.97;9.17;;;13.30;99.90;;;;;;5111647;28;20179;-71
2022/07/27 08:04:10;;;;;;;23.17;12.50;;;13.20;99.90;;;;;;5095773;28;20185;-68
2022/07/27 08:06:38;;;;;;;24.33;12.40;;;13.10;99.90;;;;;;5096582;28;20174;-72
2022/07/27 08:09:07;;;;;;;16.33;9.00;;;13.00;99.90;;;;;;5096725;28;20189;-71
2022/07/27 08:11:35;;;;;;;11.57;7.90;;;12.90;99.90;;;;;;5097688;28;20185;-71
2022/07/27 08:14:04;;;;;;;8.27;2.67;;;12.80;99.90;;;;;;5104149;28;20217;-67
2022/07/27 08:16:32;;;;;;;9.37;3.17;;;12.80;99.90;;;;;;5133771;28;20192;-68
2022/07/27 08:18:59;;;;;;;5.00;2.30;;;12.70;99.90;;;;;;5115821;28;20172;-70
2022/07/27 08:21:28;;;;;;;10.83;2.00;;;12.60;99.90;;;;;;5115066;28;20639;-70
2022/07/27 08:23:56;;;;;;;9.80;2.13;;;12.50;99.90;;;;;;5065927;28;20192;-70
2022/07/27 08:26:23;;;;;;;4.20;2.03;;;12.50;99.90;;;;;;5097035;28;20187;-70
2022/07/27 08:28:50;;;;;;;4.33;2.10;;;12.40;99.90;;;;;;5115571;28;20181;-69
2022/07/27 08:31:17;;;;;;;6.90;2.40;;;12.40;99.90;;;;;;5098789;28;20220;-69
2022/07/27 08:33:45;;;;;;;6.30;2.37;;;12.60;99.90;;;;;;5094826;28;20212;-71
2022/07/27 08:36:15;;;;;;;4.07;1.70;;;13.10;99.90;;;;;;5090247;28;20204;-70
2022/07/27 08:38:42;;;;;;;1.73;1.00;;;13.50;99.90;;;;;;5097752;28;20176;-69
2022/07/27 08:41:12;;;;;;;1.47;0.80;;;13.90;99.90;;;;;;5096858;28;20208;-69
2022/07/27 08:43:44;;;;;;;3.60;1.17;;;14.10;99.90;;;;;;5094465;28;20262;-69
2022/07/27 08:46:13;;;;;;;2.27;1.33;;;14.20;99.90;;;;;;5094559;28;20180;-71
2022/07/27 08:48:41;;;;;;;3.10;0.93;;;14.20;99.90;;;;;;5112662;27;20189;-69
2022/07/27 08:51:09;;;;;;;3.37;1.57;;;14.20;99.90;;;;;;5094382;28;20257;-71
2022/07/27 08:53:37;;;;;;;3.70;1.30;;;14.20;99.90;;;;;;5109152;28;20648;-70
2022/07/27 08:56:04;;;;;;;3.50;1.30;;;14.20;99.90;;;;;;5114843;28;20183;-69
2022/07/27 08:58:32;;;;;;;2.20;0.90;;;14.10;99.90;;;;;;5107836;28;20189;-70
2022/07/27 09:00:59;;;;;;;2.07;1.00;;;14.10;99.90;;;;;;5094398;28;20204;-70
2022/07/27 09:03:27;;;;;;;2.60;1.17;;;14.10;99.90;;;;;;5109693;28;20193;-71
2022/07/27 09:05:57;;;;;;;2.43;1.07;;;14.00;99.90;;;;;;5075886;28;20189;-70
2022/07/27 09:08:26;;;;;;;2.10;1.13;;;13.80;99.90;;;;;;5094621;28;20190;-70
2022/07/27 09:10:56;;;;;;;4.00;1.37;;;13.70;99.90;;;;;;5084232;28;20529;-70
2022/07/27 09:13:32;;;;;;;3.43;1.60;;;13.60;99.90;;;;;;5109708;28;20193;-69
2022/07/27 09:16:02;;;;;;;3.60;1.77;;;13.50;99.90;;;;;;5094339;28;20234;-69
2022/07/27 09:18:36;;;;;;;8.43;2.40;;;13.30;99.90;;;;;;5093953;28;20217;-70
2022/07/27 09:21:20;;;;;;;4.37;1.93;;;13.20;99.90;;;;;;5094276;28;20176;-71
2022/07/27 09:23:56;;;;;;;3.73;1.70;;;13.00;99.90;;;;;;5094007;28;20186;-69
2022/07/27 09:26:29;;;;;;;5.60;2.40;;;12.90;99.90;;;;;;5114535;28;20527;-70
2022/07/27 09:29:11;;;;;;;5.17;2.17;;;12.80;99.90;;;;;;5103093;28;20197;-69
2022/07/27 09:31:50;;;;;;;3.43;2.10;;;12.60;99.90;;;;;;5093639;28;20269;-70
2022/07/27 09:34:32;;;;;;;4.33;2.17;;;12.50;99.90;;;;;;5093756;28;20691;-71
2022/07/27 09:37:08;;;;;;;3.17;1.97;;;12.40;99.90;;;;;;5093574;28;20211;-70
2022/07/27 09:39:35;;;;;;;3.20;1.63;;;12.30;99.90;;;;;;5110013;28;20180;-69
2022/07/27 09:42:04;;;;;;;3.73;1.87;;;12.10;99.90;;;;;;5094789;28;20215;-70
2022/07/27 09:44:39;;;;;;;6.87;2.00;;;12.10;99.90;;;;;;5104876;28;20198;-70
2022/07/27 09:47:27;;;;;;;5.87;2.30;;;11.90;99.90;;;;;;5114078;28;20176;-69
2022/07/27 09:49:57;;;;;;;3.83;2.40;;;11.90;99.90;;;;;;5113789;28;20251;-70
2022/07/27 09:52:27;;;;;;;3.40;2.13;;;11.90;99.90;;;;;;5095453;28;20180;-69
2022/07/27 09:55:03;;;;;;;4.93;2.60;;;11.90;99.90;;;;;;5083905;28;20254;-70
2022/07/27 09:57:52;;;;;;;10.67;7.43;;;11.80;99.90;;;;;;5109610;28;20167;-70
2022/07/27 10:00:20;;;;;;;10.00;6.07;;;11.60;99.90;;;;;;5092706;28;20677;-70
2022/07/27 10:02:51;;;;;;;7.40;5.10;;;11.40;99.90;;;;;;5100756;28;20185;-71
2022/07/27 10:05:21;;;;;;;4.70;3.10;;;11.20;99.90;;;;;;5073228;28;20727;-71
2022/07/27 10:07:50;;;;;;;7.93;4.07;;;11.00;99.90;;;;;;5073141;28;20217;-69
2022/07/27 10:10:18;;;;;;;7.80;3.63;;;10.90;99.90;;;;;;5089601;28;20187;-70
2022/07/27 10:12:48;;;;;;;4.17;2.93;;;10.80;99.90;;;;;;5104186;28;20549;-70
2022/07/27 10:15:16;;;;;;;4.13;2.50;;;10.70;99.90;;;;;;5095477;28;20218;-70
2022/07/27 10:17:47;;;;;;;8.93;3.03;;;10.70;99.90;;;;;;5113693;28;20199;-69
2022/07/27 10:20:17;;;;;;;10.00;2.53;;;10.60;99.90;;;;;;5113814;28;20188;-70
2022/07/27 10:22:59;;;;;;;4.00;2.03;;;10.50;99.90;;;;;;5095015;28;20186;-70
2022/07/27 10:25:29;;;;;;;7.03;1.93;;;10.60;99.90;;;;;;5095301;28;20197;-70
2022/07/27 10:28:18;;;;;;;3.67;1.57;;;10.50;99.90;;;;;;5113424;28;20174;-70
2022/07/27 10:30:46;;;;;;;5.20;1.93;;;10.60;99.90;;;;;;5113361;28;20259;-70
2022/07/27 10:33:36;;;;;;;4.60;2.07;;;10.60;99.90;;;;;;5113886;28;20254;-70
2022/07/27 10:36:13;;;;;;;4.77;2.27;;;10.70;99.90;;;;;;5082641;28;20206;-71
2022/07/27 10:38:50;;;;;;;6.40;2.03;;;10.70;99.90;;;;;;5093393;28;20226;-72
2022/07/27 10:41:25;;;;;;;4.47;2.13;;;10.80;99.90;;;;;;5093238;28;20269;-70
2022/07/27 10:44:17;;;;;;;4.07;2.30;;;10.90;99.90;;;;;;5097540;28;20215;-70
2022/07/27 10:46:50;;;;;;;1.47;1.23;;;10.90;99.90;;;;;;5095412;28;20270;-70
2022/07/27 10:49:21;;;;;;;2.27;1.10;;;11.00;99.90;;;;;;5098967;28;20182;-70
2022/07/27 10:51:51;;;;;;;1.17;0.87;;;11.00;99.90;;;;;;5093256;28;20176;-70
2022/07/27 10:54:24;;;;;;;1.77;0.80;;;11.10;99.90;;;;;;5098020;28;20259;-69
2022/07/27 10:56:53;;;;;;;1.70;1.00;;;11.00;99.90;;;;;;5113555;28;20199;-68
2022/07/27 10:59:39;;;;;;;2.20;0.93;;;11.00;99.90;;;;;;5113346;28;20295;-70
2022/07/27 11:02:13;;;;;;;1.87;1.37;;;11.00;99.90;;;;;;5095039;28;20670;-70
2022/07/27 11:04:48;;;;;;;1.10;0.87;;;11.00;99.90;;;;;;5064762;28;20175;-69
2022/07/27 11:07:26;;;;;;;2.90;1.20;;;11.10;99.90;;;;;;5073089;28;20638;-71
2022/07/27 11:09:53;;;;;;;2.13;0.90;;;11.00;99.90;;;;;;5108785;28;20190;-70
2022/07/27 11:12:27;;;;;;;0.93;0.90;;;11.00;99.90;;;;;;5116566;28;20186;-70
2022/07/27 11:14:56;;;;;;;1.63;0.80;;;11.00;99.90;;;;;;5104210;28;20210;-69
2022/07/27 11:17:27;;;;;;;1.17;0.90;;;10.90;99.90;;;;;;5095736;28;20271;-69
2022/07/27 11:20:04;;;;;;;1.60;1.27;;;10.80;99.90;;;;;;5095982;28;20186;-70
2022/07/27 11:22:40;;;;;;;1.67;0.87;;;10.70;99.90;;;;;;5096324;28;20181;-70
2022/07/27 11:25:18;;;;;;;4.47;0.93;;;10.60;99.90;;;;;;5106015;28;20205;-69
2022/07/27 11:27:52;;;;;;;3.13;1.33;;;10.40;99.90;;;;;;5109291;28;20634;-70
2022/07/27 11:30:27;;;;;;;3.97;1.37;;;10.30;99.90;;;;;;5095878;28;20199;-70
2022/07/27 11:32:56;;;;;;;24.87;12.97;;;10.20;99.90;;;;;;5077632;28;20564;-70
2022/07/27 11:35:24;;;;;;;7.53;3.50;;;10.00;99.90;;;;;;5107600;28;20305;-70
2022/07/27 11:38:04;;;;;;;3.47;2.20;;;9.90;99.90;;;;;;5115857;28;20629;-70
2022/07/27 11:40:52;;;;;;;2.57;1.50;;;9.90;99.90;;;;;;5116143;28;20211;-70
2022/07/27 11:43:37;;;;;;;2.73;1.80;;;9.80;99.90;;;;;;5097041;28;20653;-70
2022/07/27 11:46:19;;;;;;;1.97;1.57;;;9.70;99.90;;;;;;5097744;28;20578;-70
2022/07/27 11:48:55;;;;;;;3.07;1.70;;;9.60;99.90;;;;;;5074901;28;20270;-69
2022/07/27 11:51:24;;;;;;;5.33;1.80;;;9.60;99.90;;;;;;5088003;28;20527;-70
2022/07/27 11:54:00;;;;;;;3.60;1.90;;;9.50;99.90;;;;;;5095455;28;20680;-70
2022/07/27 11:56:31;;;;;;;2.97;1.80;;;9.40;99.90;;;;;;5115749;28;20185;-70
2022/07/27 11:59:10;;;;;;;3.97;1.87;;;9.30;99.90;;;;;;5115640;28;20186;-69
2022/07/27 12:01:50;;;;;;;2.77;1.80;;;9.30;99.90;;;;;;5115283;28;20173;-70
2022/07/27 12:04:22;;;;;;;2.53;1.90;;;9.20;99.90;;;;;;5112558;28;20269;-69
2022/07/27 12:07:10;;;;;;;3.93;1.77;;;9.20;99.90;;;;;;5095122;28;20168;-70
2022/07/27 12:09:42;;;;;;;2.23;1.90;;;9.10;99.90;;;;;;5095309;28;20175;-69
2022/07/27 12:12:13;;;;;;;4.07;2.07;;;9.10;99.90;;;;;;5077060;28;20210;-71
2022/07/27 12:14:44;;;;;;;3.37;2.23;;;9.00;99.90;;;;;;5102503;28;20202;-70
2022/07/27 12:17:25;;;;;;;3.73;2.53;;;8.90;99.90;;;;;;5114966;28;20186;-70
2022/07/27 12:20:04;;;;;;;3.37;1.97;;;8.90;99.90;;;;;;5115555;28;20710;-70
2022/07/27 12:22:42;;;;;;;4.43;2.40;;;8.80;99.90;;;;;;5114545;28;20173;-70
2022/07/27 12:25:20;;;;;;;4.57;2.07;;;8.70;99.90;;;;;;5103366;28;20179;-70
2022/07/27 12:28:04;;;;;;;3.67;2.20;;;8.70;99.90;;;;;;5101584;28;20272;-71
2022/07/27 12:30:44;;;;;;;2.97;2.17;;;8.60;99.90;;;;;;5114450;28;20653;-71
2022/07/27 12:33:28;;;;;;;4.03;2.30;;;8.60;99.90;;;;;;5096686;28;20282;-70
2022/07/27 12:35:57;;;;;;;4.87;1.90;;;8.50;99.90;;;;;;5097021;28;20682;-69
2022/07/27 12:38:35;;;;;;;2.80;2.00;;;8.50;99.90;;;;;;5094615;28;20176;-70
2022/07/27 12:41:03;;;;;;;3.10;2.03;;;8.50;99.90;;;;;;5076281;28;20255;-70
2022/07/27 12:43:31;;;;;;;6.53;2.67;;;8.50;99.90;;;;;;5112784;28;20238;-70
2022/07/27 12:45:58;;;;;;;7.90;2.53;;;;;;;;;;5094365;28;20189;-70
2022/07/27 12:48:28;;;;;;;6.50;2.47;;;8.40;99.90;;;;;;5090845;28;20190;-69
2022/07/27 12:51:03;;;;;;;3.60;2.30;;;8.40;99.90;;;;;;5112744;28;20175;-69
2022/07/27 12:53:32;;;;;;;4.70;2.50;;;8.40;99.90;;;;;;5113699;28;20204;-69
2022/07/27 12:56:04;;;;;;;5.30;2.70;;;8.30;99.90;;;;;;5073759;28;20183;-70
2022/07/27 12:58:32;;;;;;;5.63;2.87;;;8.40;99.90;;;;;;5073858;28;20183;-69
2022/07/27 13:01:00;;;;;;;8.73;3.30;;;8.40;99.90;;;;;;5090912;28;20190;-70
2022/07/27 13:03:27;;;;;;;5.07;2.93;;;8.30;99.90;;;;;;5113889;28;20637;-70
2022/07/27 13:05:55;;;;;;;5.80;2.90;;;8.30;99.90;;;;;;5094293;28;20179;-70
2022/07/27 13:08:23;;;;;;;5.87;2.73;;;8.30;99.90;;;;;;5093950;28;20208;-70
2022/07/27 13:10:51;;;;;;;7.00;2.80;;;8.20;99.90;;;;;;5093864;28;20536;-70